createdAt,value
2023-03-21T00:01:31.976Z,987
2023-03-21T00:02:15.842Z,986.9
2023-03-21T00:04:16.824Z,986.9
2023-03-21T00:06:18.717Z,986.9
2023-03-21T00:08:20.001Z,986.9
2023-03-21T00:10:29.893Z,986.9
2023-03-21T00:12:22.998Z,986.8
2023-03-21T00:14:24.220Z,986.8
2023-03-21T00:18:26.982Z,986.8
2023-03-21T00:20:28.783Z,986.8
2023-03-21T00:22:29.954Z,986.8
2023-03-21T00:24:31.647Z,986.9
2023-03-21T00:26:32.962Z,986.7
2023-03-21T00:28:34.085Z,986.8
2023-03-21T00:30:35.482Z,986.8
2023-03-21T00:32:42.797Z,986.8
2023-03-21T00:36:38.541Z,986.8
2023-03-21T00:38:39.386Z,986.7
2023-03-21T00:40:43.844Z,986.7
2023-03-21T00:44:43.592Z,986.7
2023-03-21T00:46:51.508Z,986.6
2023-03-21T00:48:45.932Z,986.7
2023-03-21T00:50:47.854Z,986.6
2023-03-21T00:52:49.058Z,986.6
2023-03-21T00:54:50.576Z,986.5
2023-03-21T00:56:52.239Z,986.5
2023-03-21T00:58:53.601Z,986.6
2023-03-21T01:00:55.256Z,986.6
2023-03-21T01:03:01.440Z,986.5
2023-03-21T01:04:57.798Z,986.5
2023-03-21T01:06:58.820Z,986.5
2023-03-21T01:09:00.656Z,986.5
2023-03-21T01:11:02.311Z,986.5
2023-03-21T01:13:03.691Z,986.5
2023-03-21T01:15:05.545Z,986.4
2023-03-21T01:17:06.620Z,986.4
2023-03-21T01:19:14.844Z,986.3
2023-03-21T01:21:09.604Z,986.3
2023-03-21T01:23:11.494Z,986.3
2023-03-21T01:25:22.132Z,986.3
2023-03-21T01:27:14.841Z,986.3
2023-03-21T01:29:16.276Z,986.3
2023-03-21T01:31:18.195Z,986.3
2023-03-21T01:33:19.565Z,986.2
2023-03-21T01:37:22.749Z,986.2
2023-03-21T01:39:24.677Z,986.2
2023-03-21T01:41:28.641Z,986.1
2023-03-21T01:43:27.674Z,986.2
2023-03-21T01:45:28.959Z,986.2
2023-03-21T01:47:30.355Z,986.2
2023-03-21T01:49:31.844Z,986.2
2023-03-21T01:51:33.347Z,986.3
2023-03-21T01:53:34.738Z,986.3
2023-03-21T01:55:35.909Z,986.2
2023-03-21T01:57:43.665Z,986.2
2023-03-21T01:59:39.321Z,986.1
2023-03-21T02:01:40.684Z,986.2
2023-03-21T02:03:50.538Z,986.2
2023-03-21T02:05:43.266Z,986.2
2023-03-21T02:07:44.288Z,986.2
2023-03-21T02:09:45.273Z,986.2
2023-03-21T02:11:46.358Z,986.1
2023-03-21T02:13:47.622Z,986.2
2023-03-21T02:15:49.204Z,986.1
2023-03-21T02:17:50.251Z,986
2023-03-21T02:19:53.636Z,986.1
2023-03-21T02:21:53.026Z,986
2023-03-21T02:23:54.383Z,986
2023-03-21T02:25:55.565Z,986
2023-03-21T02:27:56.522Z,986
2023-03-21T02:29:57.590Z,985.9
2023-03-21T02:32:09.262Z,985.9
2023-03-21T02:34:00.413Z,985.9
2023-03-21T02:36:08.765Z,985.9
2023-03-21T02:38:11.374Z,985.9
2023-03-21T02:42:07.236Z,985.9
2023-03-21T02:44:09.109Z,985.8
2023-03-21T02:46:10.600Z,985.9
2023-03-21T02:48:17.334Z,985.9
2023-03-21T02:50:13.150Z,985.9
2023-03-21T02:52:18.644Z,985.9
2023-03-21T02:54:30.156Z,985.9
2023-03-21T02:56:17.170Z,985.9
2023-03-21T02:58:18.405Z,985.8
2023-03-21T03:00:20.218Z,985.9
2023-03-21T03:02:21.363Z,985.8
2023-03-21T03:04:22.658Z,985.8
2023-03-21T03:06:24.127Z,985.9
2023-03-21T03:08:36.094Z,986
2023-03-21T03:10:36.359Z,985.9
2023-03-21T03:12:28.329Z,985.9
2023-03-21T03:14:44.063Z,985.8
2023-03-21T03:16:30.943Z,985.8
2023-03-21T03:18:32.638Z,985.8
2023-03-21T03:20:33.641Z,985.9
2023-03-21T03:22:34.729Z,985.8
2023-03-21T03:24:36.602Z,985.8
2023-03-21T03:26:38.374Z,985.8
2023-03-21T03:28:39.719Z,985.9
2023-03-21T03:30:46.735Z,985.8
2023-03-21T03:32:42.464Z,985.8
2023-03-21T03:34:43.970Z,985.8
2023-03-21T03:36:45.732Z,985.8
2023-03-21T03:38:47.032Z,985.7
2023-03-21T03:40:48.682Z,985.7
2023-03-21T03:42:49.730Z,985.8
2023-03-21T03:44:51.638Z,985.8
2023-03-21T03:46:53.689Z,985.8
2023-03-21T03:50:56.425Z,985.7
2023-03-21T03:52:59.879Z,985.8
2023-03-21T03:54:59.731Z,985.8
2023-03-21T03:57:00.952Z,985.8
2023-03-21T04:01:02.926Z,985.7
2023-03-21T04:03:04.542Z,985.7
2023-03-21T04:05:05.848Z,985.8
2023-03-21T04:07:07.762Z,985.7
2023-03-21T04:09:18.914Z,985.6
2023-03-21T04:11:10.795Z,985.6
2023-03-21T04:13:12.209Z,985.6
2023-03-21T04:15:13.938Z,985.7
2023-03-21T04:17:15.445Z,985.6
2023-03-21T04:19:16.444Z,985.7
2023-03-21T04:21:17.682Z,985.7
2023-03-21T04:23:19.636Z,985.7
2023-03-21T04:25:30.914Z,985.8
2023-03-21T04:27:22.520Z,985.7
2023-03-21T04:29:23.747Z,985.8
2023-03-21T04:31:26.265Z,985.8
2023-03-21T04:33:26.951Z,985.7
2023-03-21T04:35:28.469Z,985.8
2023-03-21T04:37:29.885Z,985.8
2023-03-21T04:39:33.267Z,985.7
2023-03-21T04:41:32.530Z,985.7
2023-03-21T04:43:33.737Z,985.8
2023-03-21T04:45:35.324Z,985.7
2023-03-21T04:49:38.183Z,985.7
2023-03-21T04:51:40.087Z,985.6
2023-03-21T04:53:41.125Z,985.6
2023-03-21T04:55:42.550Z,985.7
2023-03-21T04:57:43.803Z,985.8
2023-03-21T04:59:45.555Z,985.7
2023-03-21T05:01:46.695Z,985.8
2023-03-21T05:03:48.120Z,985.8
2023-03-21T05:05:57.758Z,985.7
2023-03-21T05:07:50.946Z,985.7
2023-03-21T05:09:52.835Z,985.7
2023-03-21T05:11:54.708Z,985.6
2023-03-21T05:13:56.306Z,985.7
2023-03-21T05:15:58.072Z,985.6
2023-03-21T05:17:59.801Z,985.7
2023-03-21T05:20:01.175Z,985.7
2023-03-21T05:22:03.038Z,985.7
2023-03-21T05:24:04.108Z,985.7
2023-03-21T05:26:05.100Z,985.7
2023-03-21T05:28:06.789Z,985.7
2023-03-21T05:30:08.359Z,985.6
2023-03-21T05:32:10.270Z,985.6
2023-03-21T05:34:11.660Z,985.7
2023-03-21T05:36:12.940Z,985.6
2023-03-21T05:38:14.814Z,985.6
2023-03-21T05:42:18.172Z,985.6
2023-03-21T05:44:19.232Z,985.7
2023-03-21T05:48:21.826Z,985.6
2023-03-21T05:50:22.770Z,985.6
2023-03-21T05:52:24.203Z,985.6
2023-03-21T05:54:25.400Z,985.7
2023-03-21T05:56:26.814Z,985.7
2023-03-21T05:58:28.308Z,985.8
2023-03-21T06:00:30.527Z,985.7
2023-03-21T06:02:31.169Z,985.7
2023-03-21T06:04:40.452Z,985.8
2023-03-21T06:06:33.544Z,985.8
2023-03-21T06:08:34.992Z,985.8
2023-03-21T06:10:36.351Z,985.9
2023-03-21T06:12:38.041Z,985.8
2023-03-21T06:14:39.886Z,985.8
2023-03-21T06:16:41.483Z,985.9
2023-03-21T06:18:43.175Z,985.9
2023-03-21T06:20:44.340Z,985.8
2023-03-21T06:22:45.798Z,985.8
2023-03-21T06:24:47.485Z,985.8
2023-03-21T06:26:48.935Z,985.8
2023-03-21T06:30:51.368Z,985.8
2023-03-21T06:32:52.783Z,985.9
2023-03-21T06:34:54.371Z,985.8
2023-03-21T06:36:55.524Z,985.8
2023-03-21T06:38:57.510Z,985.9
2023-03-21T06:40:59.216Z,985.8
2023-03-21T06:43:00.488Z,985.8
2023-03-21T06:45:02.172Z,985.7
2023-03-21T06:47:03.599Z,985.7
2023-03-21T06:51:49.990Z,985.7
2023-03-21T06:53:51.690Z,985.7
2023-03-21T06:55:53.060Z,985.8
2023-03-21T06:57:54.644Z,985.7
2023-03-21T07:01:57.330Z,985.7
2023-03-21T07:03:58.986Z,985.7
2023-03-21T07:06:00.197Z,985.7
2023-03-21T07:08:01.569Z,985.8
2023-03-21T07:10:03.186Z,985.8
2023-03-21T07:12:04.898Z,985.7
2023-03-21T07:14:06.751Z,985.7
2023-03-21T07:16:08.247Z,985.7
2023-03-21T07:18:09.662Z,985.7
2023-03-21T07:20:10.634Z,985.6
2023-03-21T07:22:11.771Z,985.6
2023-03-21T07:24:12.961Z,985.6
2023-03-21T07:26:14.181Z,985.5
2023-03-21T07:28:14.994Z,985.6
2023-03-21T07:30:16.434Z,985.5
2023-03-21T07:32:18.240Z,985.6
2023-03-21T07:34:19.788Z,985.5
2023-03-21T07:36:20.949Z,985.5
2023-03-21T07:38:22.570Z,985.5
2023-03-21T07:40:24.253Z,985.6
2023-03-21T07:42:25.560Z,985.6
2023-03-21T07:44:27.208Z,985.6
2023-03-21T07:46:28.872Z,985.6
2023-03-21T07:50:31.078Z,985.6
2023-03-21T07:52:32.242Z,985.6
2023-03-21T07:54:33.109Z,985.7
2023-03-21T07:56:34.124Z,985.6
2023-03-21T07:58:35.264Z,985.7
2023-03-21T08:00:36.606Z,985.6
2023-03-21T08:02:37.543Z,985.7
2023-03-21T08:06:39.874Z,985.7
2023-03-21T08:08:41.127Z,985.7
2023-03-21T08:10:42.310Z,985.7
2023-03-21T08:12:43.770Z,985.7
2023-03-21T08:14:45.149Z,985.6
2023-03-21T08:16:46.947Z,985.7
2023-03-21T08:18:48.191Z,985.6
2023-03-21T08:20:49.480Z,985.6
2023-03-21T08:22:50.727Z,985.6
2023-03-21T08:24:51.758Z,985.6
2023-03-21T08:26:53.153Z,985.7
2023-03-21T08:28:54.930Z,985.6
2023-03-21T08:33:00.620Z,985.6
2023-03-21T08:34:59.166Z,985.6
2023-03-21T08:37:00.799Z,985.6
2023-03-21T08:39:01.650Z,985.6
2023-03-21T08:41:02.546Z,985.5
2023-03-21T08:43:03.384Z,985.5
2023-03-21T08:45:04.370Z,985.5
2023-03-21T08:47:05.508Z,985.5
2023-03-21T08:49:06.859Z,985.5
2023-03-21T08:51:08.043Z,985.6
2023-03-21T08:53:09.859Z,985.5
2023-03-21T08:55:11.311Z,985.5
2023-03-21T08:57:12.964Z,985.5
2023-03-21T08:59:14.661Z,985.4
2023-03-21T09:01:16.037Z,985.5
2023-03-21T09:03:18.130Z,985.4
2023-03-21T09:05:19.648Z,985.4
2023-03-21T09:07:20.764Z,985.4
2023-03-21T09:09:21.818Z,985.3
2023-03-21T09:11:23.306Z,985.2
2023-03-21T09:13:24.808Z,985.4
2023-03-21T09:15:25.749Z,985.3
2023-03-21T09:17:26.885Z,985.4
2023-03-21T09:19:28.542Z,985.3
2023-03-21T09:21:29.953Z,985.3
2023-03-21T09:23:30.855Z,985.2
2023-03-21T09:25:31.963Z,985.2
2023-03-21T09:27:33.073Z,985.3
2023-03-21T09:31:35.273Z,985.3
2023-03-21T09:33:36.550Z,985.1
2023-03-21T09:35:38.371Z,985.2
2023-03-21T09:37:39.216Z,985.4
2023-03-21T09:39:40.223Z,985.3
2023-03-21T09:41:41.957Z,985.3
2023-03-21T09:43:42.862Z,985.3
2023-03-21T09:47:47.215Z,985.3
2023-03-21T09:49:48.507Z,985.4
2023-03-21T09:51:49.445Z,985.2
2023-03-21T09:53:50.704Z,985.2
2023-03-21T09:55:52.158Z,985.2
2023-03-21T09:57:53.865Z,985.3
2023-03-21T09:59:55.205Z,985.2
2023-03-21T10:01:55.997Z,985.2
2023-03-21T10:03:57.136Z,985.1
2023-03-21T10:05:58.431Z,985.2
2023-03-21T10:07:59.699Z,985.2
2023-03-21T10:10:01.138Z,985.1
2023-03-21T10:12:02.028Z,985
2023-03-21T10:14:03.401Z,985.2
2023-03-21T10:16:05.196Z,985
2023-03-21T10:18:06.892Z,985.1
2023-03-21T10:20:10.494Z,985
2023-03-21T10:22:09.574Z,985.1
2023-03-21T10:24:11.097Z,985
2023-03-21T10:26:14.866Z,985.1
2023-03-21T10:28:14.066Z,985.1
2023-03-21T10:30:15.126Z,985
2023-03-21T10:32:16.371Z,985
2023-03-21T10:34:17.208Z,985
2023-03-21T10:36:18.623Z,984.9
2023-03-21T10:38:19.473Z,984.9
2023-03-21T10:40:20.436Z,984.9
2023-03-21T10:42:22.027Z,984.8
2023-03-21T10:44:22.899Z,984.9
2023-03-21T10:46:24.634Z,984.9
2023-03-21T10:48:25.857Z,984.8
2023-03-21T10:50:26.756Z,984.9
2023-03-21T10:52:27.855Z,984.9
2023-03-21T10:54:29.272Z,984.9
2023-03-21T10:56:30.979Z,984.9
2023-03-21T10:58:32.733Z,984.9
2023-03-21T11:00:34.032Z,984.9
2023-03-21T11:02:34.920Z,984.9
2023-03-21T11:06:38.170Z,984.8
2023-03-21T11:08:39.574Z,984.8
2023-03-21T11:12:41.984Z,984.8
2023-03-21T11:14:42.975Z,984.7
2023-03-21T11:16:44.268Z,984.8
2023-03-21T11:18:45.121Z,984.8
2023-03-21T11:20:54.928Z,984.7
2023-03-21T11:22:48.406Z,984.7
2023-03-21T11:24:50.107Z,984.6
2023-03-21T11:28:52.612Z,984.6
2023-03-21T11:30:53.932Z,984.6
2023-03-21T11:32:55.683Z,984.6
2023-03-21T11:34:56.873Z,984.6
2023-03-21T11:38:58.936Z,984.5
2023-03-21T11:41:00.165Z,984.5
2023-03-21T11:43:01.820Z,984.6
2023-03-21T11:45:03.468Z,984.6
2023-03-21T11:47:04.356Z,984.5
2023-03-21T11:49:05.972Z,984.5
2023-03-21T11:51:07.367Z,984.4
2023-03-21T11:53:08.948Z,984.6
2023-03-21T11:55:10.661Z,984.4
2023-03-21T11:57:12.020Z,984.4
2023-03-21T11:59:14.660Z,984.4
2023-03-21T12:01:16.303Z,984.3
2023-03-21T12:03:18.554Z,984.3
2023-03-21T12:05:20.279Z,984.4
2023-03-21T12:07:22.025Z,984.3
2023-03-21T12:09:23.613Z,984.3
2023-03-21T12:11:25.048Z,984.3
2023-03-21T12:13:25.979Z,984.2
2023-03-21T12:15:27.938Z,984.2
2023-03-21T12:17:29.491Z,984.2
2023-03-21T12:21:32.492Z,984.2
2023-03-21T12:23:34.184Z,984.2
2023-03-21T12:27:36.581Z,984
2023-03-21T12:29:37.689Z,984.1
2023-03-21T12:31:38.871Z,984.1
2023-03-21T12:33:40.066Z,984.1
2023-03-21T12:35:41.661Z,983.9
2023-03-21T12:37:42.706Z,984
2023-03-21T12:39:44.291Z,984
2023-03-21T12:41:45.988Z,984
2023-03-21T12:43:47.704Z,984
2023-03-21T12:45:49.609Z,983.9
2023-03-21T12:47:50.723Z,983.9
2023-03-21T12:49:53.988Z,983.9
2023-03-21T12:51:53.633Z,984
2023-03-21T12:53:54.534Z,983.9
2023-03-21T12:55:56.288Z,983.8
2023-03-21T12:57:58.138Z,983.9
2023-03-21T12:59:59.993Z,984
2023-03-21T13:02:01.136Z,983.9
2023-03-21T13:04:02.354Z,983.8
2023-03-21T13:06:04.064Z,983.8
2023-03-21T13:10:06.844Z,983.7
2023-03-21T13:12:08.587Z,983.7
2023-03-21T13:14:09.440Z,983.7
2023-03-21T13:16:11.031Z,983.7
2023-03-21T13:18:12.278Z,983.7
2023-03-21T13:20:13.920Z,983.7
2023-03-21T13:22:16.077Z,983.7
2023-03-21T13:24:18.049Z,983.7
2023-03-21T13:26:18.876Z,983.7
2023-03-21T13:28:20.043Z,983.7
2023-03-21T13:30:21.123Z,983.7
2023-03-21T13:32:22.840Z,983.7
2023-03-21T13:33:06.491Z,983.7
2023-03-21T13:35:07.319Z,983.6
2023-03-21T13:37:09.111Z,983.6
2023-03-21T13:39:10.646Z,983.6
2023-03-21T13:41:12.202Z,983.7
2023-03-21T13:43:16.175Z,983.6
2023-03-21T13:45:14.709Z,983.6
2023-03-21T13:47:17.032Z,983.6
2023-03-21T13:49:17.544Z,983.6
2023-03-21T13:51:19.324Z,983.5
2023-03-21T13:53:21.283Z,983.5
2023-03-21T13:55:22.792Z,983.6
2023-03-21T13:57:24.593Z,983.5
2023-03-21T13:59:25.598Z,983.5
2023-03-21T14:03:28.462Z,983.5
2023-03-21T14:05:29.553Z,983.5
2023-03-21T14:07:30.983Z,983.4
2023-03-21T14:09:33.108Z,983.4
2023-03-21T14:11:34.802Z,983.4
2023-03-21T14:13:44.885Z,983.3
2023-03-21T14:15:40.668Z,983.4
2023-03-21T14:17:38.023Z,983.3
2023-03-21T14:19:39.557Z,983.3
2023-03-21T14:21:40.999Z,983.3
2023-03-21T14:23:42.644Z,983.3
2023-03-21T14:25:47.431Z,983.2
2023-03-21T14:29:46.219Z,983.2
2023-03-21T14:31:47.797Z,983.2
2023-03-21T14:33:49.449Z,983.3
2023-03-21T14:35:50.835Z,983.2
2023-03-21T14:37:51.699Z,983.2
2023-03-21T14:39:52.753Z,983.2
2023-03-21T14:41:54.739Z,983.3
2023-03-21T14:43:54.581Z,983.2
2023-03-21T14:45:56.302Z,983.3
2023-03-21T14:47:57.789Z,983.3
2023-03-21T14:49:59.473Z,983.3
2023-03-21T14:52:00.466Z,983.2
2023-03-21T14:54:02.067Z,983.3
2023-03-21T14:56:03.797Z,983.4
2023-03-21T14:58:06.701Z,983.4
2023-03-21T15:00:06.622Z,983.4
2023-03-21T15:02:08.424Z,983.4
2023-03-21T15:04:09.498Z,983.4
2023-03-21T15:06:10.696Z,983.3
2023-03-21T15:08:12.230Z,983.3
2023-03-21T15:10:13.235Z,983.3
2023-03-21T15:12:14.394Z,983.3
2023-03-21T15:14:16.446Z,983.3
2023-03-21T15:16:17.404Z,983.2
2023-03-21T15:18:18.527Z,983.1
2023-03-21T15:20:20.379Z,983.2
2023-03-21T15:22:21.792Z,983.1
2023-03-21T15:24:23.016Z,983.1
2023-03-21T15:28:25.706Z,983.2
2023-03-21T15:30:26.786Z,983.2
2023-03-21T15:32:27.838Z,983.1
2023-03-21T15:34:30.231Z,983.2
2023-03-21T15:36:30.956Z,983.1
2023-03-21T15:38:32.577Z,983.1
2023-03-21T15:40:33.626Z,983
2023-03-21T15:44:36.097Z,983.1
2023-03-21T15:46:37.286Z,983.1
2023-03-21T15:48:38.485Z,983.1
2023-03-21T15:50:40.297Z,983.1
2023-03-21T15:52:41.600Z,983.1
2023-03-21T15:54:43.333Z,983.2
2023-03-21T15:56:53.287Z,983.2
2023-03-21T15:58:45.858Z,983.1
2023-03-21T16:00:47.372Z,983.1
2023-03-21T16:02:48.652Z,983
2023-03-21T16:04:50.028Z,983
2023-03-21T16:06:51.354Z,983.1
2023-03-21T16:08:53.126Z,983.1
2023-03-21T16:10:54.719Z,983
2023-03-21T16:12:56.192Z,983
2023-03-21T16:14:58.029Z,982.9
2023-03-21T16:16:59.365Z,983
2023-03-21T16:19:01.084Z,983
2023-03-21T16:21:02.685Z,983
2023-03-21T16:23:04.548Z,983
2023-03-21T16:25:05.988Z,983
2023-03-21T16:27:07.139Z,982.9
2023-03-21T16:29:08.462Z,983
2023-03-21T16:31:09.497Z,983
2023-03-21T16:33:11.264Z,983
2023-03-21T16:35:12.361Z,982.9
2023-03-21T16:37:13.366Z,982.9
2023-03-21T16:39:14.763Z,982.8
2023-03-21T16:41:15.993Z,982.9
2023-03-21T16:43:17.240Z,982.7
2023-03-21T16:45:18.324Z,982.8
2023-03-21T16:47:19.263Z,982.8
2023-03-21T16:49:21.054Z,982.9
2023-03-21T16:53:23.839Z,982.8
2023-03-21T16:55:25.268Z,982.9
2023-03-21T16:57:26.865Z,982.8
2023-03-21T16:59:28.264Z,982.8
2023-03-21T17:03:30.944Z,982.8
2023-03-21T17:05:32.757Z,982.9
2023-03-21T17:09:34.952Z,982.8
2023-03-21T17:11:36.026Z,982.8
2023-03-21T17:13:37.866Z,982.9
2023-03-21T17:15:39.102Z,983
2023-03-21T17:17:40.178Z,983
2023-03-21T17:19:42.046Z,983.1
2023-03-21T17:21:43.169Z,983.1
2023-03-21T17:23:44.322Z,983.1
2023-03-21T17:25:45.864Z,983.2
2023-03-21T17:27:47.082Z,983.1
2023-03-21T17:29:48.588Z,983.2
2023-03-21T17:31:50.067Z,983.3
2023-03-21T17:33:51.953Z,983.2
2023-03-21T17:35:53.152Z,983.1
2023-03-21T17:37:54.555Z,983.2
2023-03-21T17:39:56.059Z,983.1
2023-03-21T17:41:57.288Z,983.1
2023-03-21T17:43:59.102Z,983.2
2023-03-21T17:46:00.252Z,983.1
2023-03-21T17:48:01.940Z,983
2023-03-21T17:52:04.670Z,983.2
2023-03-21T17:54:06.569Z,983.2
2023-03-21T17:56:07.509Z,983.1
2023-03-21T17:58:10.651Z,983.2
2023-03-21T18:00:10.539Z,983.2
2023-03-21T18:02:12.314Z,983
2023-03-21T18:04:13.631Z,983.1
2023-03-21T18:08:16.695Z,982.8
2023-03-21T18:10:18.202Z,982.9
2023-03-21T18:12:19.118Z,982.9
2023-03-21T18:14:26.830Z,983
2023-03-21T18:16:22.028Z,983.2
2023-03-21T18:18:23.506Z,983.2
2023-03-21T18:20:25.187Z,983.2
2023-03-21T18:22:26.708Z,983.2
2023-03-21T18:24:28.487Z,983.3
2023-03-21T18:26:31.164Z,983.2
2023-03-21T18:28:31.771Z,983.2
2023-03-21T18:30:47.577Z,983.2
2023-03-21T18:32:34.413Z,983.2
2023-03-21T18:34:36.193Z,983
2023-03-21T18:36:37.740Z,983.1
2023-03-21T18:38:38.264Z,983
2023-03-21T18:40:40.597Z,982.9
2023-03-21T18:42:58.848Z,983
2023-03-21T18:44:43.072Z,982.9
2023-03-21T18:46:44.146Z,982.8
2023-03-21T18:48:46.385Z,983
2023-03-21T18:50:46.934Z,982.9
2023-03-21T18:52:48.625Z,982.9
2023-03-21T18:54:50.461Z,983
2023-03-21T18:57:32.043Z,983
2023-03-21T18:58:52.703Z,982.9
2023-03-21T19:00:54.083Z,982.9
2023-03-21T19:03:07.404Z,982.9
2023-03-21T19:04:57.667Z,982.9
2023-03-21T19:06:58.976Z,982.9
2023-03-21T19:09:00.040Z,983
2023-03-21T19:11:05.894Z,983.1
2023-03-21T19:13:03.455Z,983.1
2023-03-21T19:17:56.347Z,983.1
2023-03-21T19:19:07.753Z,983.1
2023-03-21T19:21:09.084Z,983.1
2023-03-21T19:23:10.962Z,983.2
2023-03-21T19:27:13.783Z,983.1
2023-03-21T19:29:15.329Z,983.2
2023-03-21T19:31:16.922Z,983.1
2023-03-21T19:33:18.157Z,983.1
2023-03-21T19:35:19.760Z,983.2
2023-03-21T19:37:21.435Z,983.2
2023-03-21T19:39:22.896Z,983.1
2023-03-21T19:41:23.889Z,983.1
2023-03-21T19:43:32.602Z,983
2023-03-21T19:45:26.992Z,982.9
2023-03-21T19:47:28.626Z,983
2023-03-21T19:49:48.783Z,983
2023-03-21T19:51:32.024Z,983
2023-03-21T19:53:32.650Z,983
2023-03-21T19:55:34.409Z,983.1
2023-03-21T19:57:35.684Z,983
2023-03-21T19:59:37.465Z,983
2023-03-21T20:01:39.449Z,983.1
2023-03-21T20:03:40.945Z,983.1
2023-03-21T20:05:41.922Z,983
2023-03-21T20:07:43.612Z,983
2023-03-21T20:09:52.437Z,983.1
2023-03-21T20:11:46.514Z,983
2023-03-21T20:15:54.759Z,983
2023-03-21T20:17:51.407Z,982.9
2023-03-21T20:18:35.276Z,982.9
2023-03-21T20:20:36.664Z,983
2023-03-21T20:23:05.017Z,983
2023-03-21T20:24:39.225Z,983.1
2023-03-21T20:26:40.486Z,983.1
2023-03-21T20:28:55.865Z,983.1
2023-03-21T20:30:43.969Z,983
2023-03-21T20:32:45.553Z,983
2023-03-21T20:34:47.178Z,983
2023-03-21T20:36:48.962Z,983
2023-03-21T20:38:50.463Z,983.1
2023-03-21T20:40:52.336Z,983.1
2023-03-21T20:42:55.344Z,983.2
2023-03-21T20:44:58.934Z,983.1
2023-03-21T20:46:56.702Z,983.1
2023-03-21T20:48:58.383Z,983.1
2023-03-21T20:53:07.101Z,983.1
2023-03-21T20:55:02.739Z,983.2
2023-03-21T20:57:04.194Z,983.2
2023-03-21T20:59:16.577Z,983.1
2023-03-21T21:01:07.289Z,983.2
2023-03-21T21:03:09.073Z,983.2
2023-03-21T21:05:25.728Z,983.2
2023-03-21T21:07:12.376Z,983.2
2023-03-21T21:09:13.393Z,983.1
2023-03-21T21:11:56.827Z,983.1
2023-03-21T21:13:15.339Z,983.1
2023-03-21T21:15:16.735Z,983
2023-03-21T21:17:46.927Z,983
2023-03-21T21:19:20.422Z,982.9
2023-03-21T21:21:22.290Z,983
2023-03-21T21:23:25.463Z,983.1
2023-03-21T21:25:24.446Z,983
2023-03-21T21:27:26.356Z,983.1
2023-03-21T21:29:28.137Z,982.9
2023-03-21T21:31:38.715Z,982.9
2023-03-21T21:33:30.944Z,983
2023-03-21T21:35:32.656Z,983
2023-03-21T21:37:34.465Z,982.9
2023-03-21T21:39:35.952Z,983
2023-03-21T21:41:37.530Z,983
2023-03-21T21:43:39.458Z,982.9
2023-03-21T21:45:40.997Z,982.9
2023-03-21T21:47:42.117Z,982.9
2023-03-21T21:51:46.643Z,982.9
2023-03-21T21:53:47.082Z,983
2023-03-21T21:55:48.430Z,982.9
2023-03-21T21:57:49.519Z,983
2023-03-21T21:59:50.652Z,982.9
2023-03-21T22:01:52.091Z,982.9
2023-03-21T22:03:53.681Z,983
2023-03-21T22:05:54.933Z,982.9
2023-03-21T22:07:56.080Z,982.9
2023-03-21T22:09:57.274Z,982.9
2023-03-21T22:11:59.024Z,982.9
2023-03-21T22:14:00.122Z,982.8
2023-03-21T22:16:01.372Z,982.8
2023-03-21T22:18:02.998Z,982.9
2023-03-21T22:20:06.573Z,982.8
2023-03-21T22:22:06.318Z,982.7
2023-03-21T22:24:07.928Z,982.8
2023-03-21T22:26:09.134Z,982.8
2023-03-21T22:28:10.214Z,982.9
2023-03-21T22:30:11.922Z,982.9
2023-03-21T22:32:13.233Z,983
2023-03-21T22:34:14.466Z,982.9
2023-03-21T22:36:15.722Z,983
2023-03-21T22:38:17.454Z,982.9
2023-03-21T22:40:18.830Z,983
2023-03-21T22:42:20.468Z,983
2023-03-21T22:44:21.998Z,983
2023-03-21T22:46:23.529Z,983
2023-03-21T22:48:25.181Z,982.9
2023-03-21T22:50:26.696Z,983.1
2023-03-21T22:52:28.470Z,982.9
2023-03-21T22:54:30.264Z,983
2023-03-21T22:56:32.175Z,983
2023-03-21T23:00:35.700Z,983
2023-03-21T23:02:36.667Z,983
2023-03-21T23:04:37.736Z,983.1
2023-03-21T23:06:38.692Z,983.1
2023-03-21T23:10:42.120Z,983.2
2023-03-21T23:12:42.613Z,983.2
2023-03-21T23:14:43.840Z,983.1
2023-03-21T23:16:45.256Z,983.1
2023-03-21T23:18:46.635Z,983.2
2023-03-21T23:20:48.214Z,983.1
2023-03-21T23:22:49.796Z,983.1
2023-03-21T23:24:50.852Z,983
2023-03-21T23:26:51.854Z,983.1
2023-03-21T23:28:52.998Z,983
2023-03-21T23:30:54.103Z,983
2023-03-21T23:32:55.131Z,983
2023-03-21T23:34:56.830Z,983.1
2023-03-21T23:36:58.169Z,983
2023-03-21T23:38:59.937Z,983.1
2023-03-21T23:41:03.002Z,983
2023-03-21T23:43:02.753Z,983
2023-03-21T23:45:04.289Z,982.9
2023-03-21T23:47:05.580Z,982.9
2023-03-21T23:49:06.737Z,983
2023-03-21T23:51:07.996Z,983
2023-03-21T23:53:09.283Z,983
2023-03-21T23:55:10.582Z,982.9
2023-03-21T23:59:13.750Z,982.9
